Temp: 14.9°C   Baro: 1019.5mb
  Wind: 8.1mph   Dir: NNW (333°)
  Rain: 0.2mm (0.0mm/hr)
  Solar: 274W/m2  Hum: 67%
 
Bath Spa Weather Station Historical Data
Daily Summary for January 15, 2020 Units:  Metric    English   Both
Daily Weekly Monthly Yearly Custom
  High: Low: Average:
Temperature: 9.6 °C 6.7 °C 7.7 °C
Dew Point: 7.1 °C 3.6 °C 5.4 °C
Humidity: 95% 74% 86%
Wind Speed: 23.5km/h 0km/h 6.6km/h
Wind Gust: 35.4km/h - -
Wind- - WSW
Pressure: 1016.5 hPa 995.5 hPa -
Precipitation: 2.29 mm    
Historical Graphs
 
 
Tabular Data for January 15, 2020
Time Temperature Dew Point Pressure Wind Wind Speed Wind Gust Humidity Rainfall Rate (Hourly) solar
00:04 7.9 °C 7.1 °C 995.5 hPa WNW 9.7 km/h 17.7 km/h 95% 1.27 mm 0 W/m2
00:09 7.8 °C 6.9 °C 995.5 hPa WNW 13.2 km/h 19.3 km/h 95% 1.52 mm 0 W/m2
00:14 7.6 °C 6.9 °C 995.8 hPa WNW 10 km/h 19.3 km/h 95% 1.52 mm 0 W/m2
00:19 7.6 °C 6.9 °C 995.8 hPa NW 6.8 km/h 12.9 km/h 95% 1.52 mm 0 W/m2
00:24 7.6 °C 6.9 °C 995.5 hPa WNW 5 km/h 11.3 km/h 95% 1.78 mm 0 W/m2
00:29 7.6 °C 6.9 °C 995.8 hPa West 6.4 km/h 9.7 km/h 95% 1.52 mm 0 W/m2
00:34 7.6 °C 6.9 °C 995.8 hPa WNW 4.8 km/h 9.7 km/h 95% 1.52 mm 0 W/m2
00:39 7.6 °C 6.9 °C 995.8 hPa West 4.8 km/h 9.7 km/h 95% 1.52 mm 0 W/m2
00:44 7.6 °C 6.9 °C 995.8 hPa WNW 4.7 km/h 9.7 km/h 95% 1.52 mm 0 W/m2
00:49 7.6 °C 6.9 °C 995.8 hPa WNW 8 km/h 14.5 km/h 95% 1.52 mm 0 W/m2
00:54 7.4 °C 6.7 °C 996.2 hPa WNW 7.6 km/h 14.5 km/h 95% 1.52 mm 0 W/m2
00:59 7.4 °C 6.7 °C 996.2 hPa WNW 8.5 km/h 17.7 km/h 95% 1.52 mm 0 W/m2
01:04 7.4 °C 6.7 °C 996.2 hPa WNW 6.4 km/h 11.3 km/h 95% 1.27 mm 0 W/m2
01:09 7.4 °C 6.7 °C 996.5 hPa WNW 6.6 km/h 11.3 km/h 95% 1.02 mm 0 W/m2
01:14 7.4 °C 6.7 °C 996.8 hPa West 5.1 km/h 11.3 km/h 95% 0.76 mm 0 W/m2
01:19 7.4 °C 6.7 °C 996.8 hPa West 5.5 km/h 11.3 km/h 95% 0.51 mm 0 W/m2
01:24 7.4 °C 6.7 °C 996.8 hPa WNW 9 km/h 16.1 km/h 95% 0.51 mm 0 W/m2
01:29 7.4 °C 6.7 °C 997.2 hPa WNW 9.5 km/h 20.9 km/h 95% 0.51 mm 0 W/m2
01:34 7.3 °C 6.6 °C 997.2 hPa WNW 8.4 km/h 19.3 km/h 95% 0.51 mm 0 W/m2
01:38 7.1 °C 6.4 °C 997.2 hPa WNW 7.6 km/h 17.7 km/h 95% 0.51 mm 0 W/m2
01:44 7 °C 6.3 °C 997.2 hPa WNW 9.3 km/h 16.1 km/h 95% 0.51 mm 0 W/m2
01:49 7 °C 6.3 °C 997.2 hPa WNW 8.4 km/h 14.5 km/h 95% 0.51 mm 0 W/m2
01:54 6.9 °C 6.3 °C 997.5 hPa West 4 km/h 14.5 km/h 95% 0.51 mm 0 W/m2
01:59 7 °C 6.3 °C 997.5 hPa WNW 6.4 km/h 8 km/h 95% 0.25 mm 0 W/m2
02:04 6.9 °C 6.2 °C 997.5 hPa West 7.2 km/h 14.5 km/h 95% 0.25 mm 0 W/m2
02:09 7 °C 6.3 °C 997.9 hPa WNW 5.5 km/h 9.7 km/h 95% 0.51 mm 0 W/m2
02:14 7 °C 6.3 °C 997.9 hPa WNW 3.4 km/h 8 km/h 95% 0.51 mm 0 W/m2
02:19 7 °C 6.3 °C 997.9 hPa WNW 4.5 km/h 11.3 km/h 95% 0.51 mm 0 W/m2
02:24 7.1 °C 6.3 °C 997.9 hPa WNW 6.4 km/h 11.3 km/h 95% 0.51 mm 0 W/m2
02:29 7.1 °C 6.3 °C 997.9 hPa WNW 7.7 km/h 12.9 km/h 95% 0.51 mm 0 W/m2
02:34 7.1 °C 6.3 °C 998.2 hPa WNW 6.4 km/h 12.9 km/h 94.6% 0.25 mm 0 W/m2
02:39 7.1 °C 6.2 °C 998.2 hPa West 6 km/h 11.3 km/h 94% 0.25 mm 0 W/m2
02:44 7.1 °C 6.2 °C 998.2 hPa WNW 6.4 km/h 12.9 km/h 94% 0.25 mm 0 W/m2
02:49 7.1 °C 6.3 °C 998.2 hPa WNW 6 km/h 9.7 km/h 94.4% 0.25 mm 0 W/m2
02:54 7.1 °C 6.4 °C 998.2 hPa West 5.3 km/h 14.5 km/h 95% 0.25 mm 0 W/m2
02:59 7.1 °C 6.2 °C 998.5 hPa WSW 4.3 km/h 11.3 km/h 94% 0.25 mm 0 W/m2
03:04 7.1 °C 6.2 °C 998.5 hPa WNW 5.8 km/h 11.3 km/h 94% 0.25 mm 0 W/m2
03:09 7.1 °C 6.2 °C 998.5 hPa West 5.3 km/h 12.9 km/h 94% 0.25 mm 0 W/m2
03:13 7.1 °C 6.2 °C 998.5 hPa WNW 2.7 km/h 6.4 km/h 94% 0 mm 0 W/m2
03:19 7.1 °C 6.2 °C 998.5 hPa WNW 1.8 km/h 4.8 km/h 94% 0 mm 0 W/m2
03:24 7.1 °C 6.2 °C 998.5 hPa West 3.7 km/h 8 km/h 94% 0 mm 0 W/m2
03:29 7.1 °C 6.2 °C 998.5 hPa West 3.9 km/h 8 km/h 94% 0 mm 0 W/m2
03:34 7.1 °C 6.2 °C 998.2 hPa West 1.6 km/h 4.8 km/h 94% 0 mm 0 W/m2
03:39 7.1 °C 6.2 °C 998.2 hPa West 0.8 km/h 4.8 km/h 94% 0 mm 0 W/m2
03:44 7 °C 6.1 °C 998.2 hPa West 0.3 km/h 3.2 km/h 94% 0 mm 0 W/m2
03:49 7.1 °C 6.2 °C 998.2 hPa West 0.3 km/h 3.2 km/h 94% 0 mm 0 W/m2
03:54 7 °C 6.1 °C 998.2 hPa West 3.4 km/h 8 km/h 94% 0 mm 0 W/m2
03:59 6.9 °C 6.1 °C 998.2 hPa West 0.8 km/h 3.2 km/h 94% 0 mm 0 W/m2
04:04 6.9 °C 6 °C 998.5 hPa West 0.6 km/h 3.2 km/h 94% 0 mm 0 W/m2
04:09 6.9 °C 6 °C 998.5 hPa West 0.8 km/h 3.2 km/h 94% 0 mm 0 W/m2
04:14 6.9 °C 6 °C 998.9 hPa West 1.8 km/h 4.8 km/h 94% 0 mm 0 W/m2
04:19 6.9 °C 6 °C 998.9 hPa West 1.6 km/h 4.8 km/h 94% 0 mm 0 W/m2
04:24 6.9 °C 6 °C 998.9 hPa West 0.3 km/h 4.8 km/h 94% 0 mm 0 W/m2
04:29 6.9 °C 6 °C 998.9 hPa WSW 1 km/h 4.8 km/h 94% 0 mm 0 W/m2
04:34 6.9 °C 6 °C 998.9 hPa SW 3.5 km/h 9.7 km/h 94% 0 mm 0 W/m2
04:39 7 °C 6.1 °C 999.2 hPa West 3.2 km/h 8 km/h 94% 0 mm 0 W/m2
04:44 7 °C 6.1 °C 999.2 hPa West 2.7 km/h 6.4 km/h 94% 0 mm 0 W/m2
04:49 7 °C 6.1 °C 999.2 hPa WSW 2.4 km/h 6.4 km/h 94% 0 mm 0 W/m2
04:54 6.9 °C 6.1 °C 999.2 hPa WSW 3.5 km/h 8 km/h 94% 0 mm 0 W/m2
04:59 7 °C 6.1 °C 999.5 hPa West 5.6 km/h 9.7 km/h 94% 0 mm 0 W/m2
05:04 7 °C 6.1 °C 999.5 hPa WSW 5.6 km/h 11.3 km/h 94% 0 mm 0 W/m2
05:09 7 °C 6.1 °C 999.5 hPa West 3.9 km/h 11.3 km/h 94% 0 mm 0 W/m2
05:14 7.1 °C 6.1 °C 999.5 hPa WSW 4.8 km/h 11.3 km/h 93.6% 0 mm 0 W/m2
05:19 7.1 °C 6 °C 999.5 hPa SW 5.8 km/h 12.9 km/h 93% 0 mm 0 W/m2
05:24 7.2 °C 6.1 °C 999.5 hPa SW 3.4 km/h 6.4 km/h 93% 0 mm 0 W/m2
05:29 7.2 °C 6.1 °C 999.5 hPa SW 4 km/h 12.9 km/h 93% 0 mm 0 W/m2
05:34 7.2 °C 6.1 °C 999.9 hPa SW 3.7 km/h 9.7 km/h 92.4% 0 mm 0 W/m2
05:39 7.2 °C 6 °C 999.9 hPa WSW 5.5 km/h 11.3 km/h 92% 0 mm 0 W/m2
05:44 7.3 °C 6.1 °C 999.9 hPa SW 3.7 km/h 8 km/h 92% 0 mm 0 W/m2
05:48 7.3 °C 6.1 °C 999.9 hPa SW 3.5 km/h 8 km/h 92% 0 mm 0 W/m2
05:54 7.3 °C 6.1 °C 999.9 hPa SW 8.4 km/h 14.5 km/h 91.8% 0 mm 0 W/m2
05:59 7.3 °C 5.9 °C 999.9 hPa SW 6.4 km/h 12.9 km/h 91% 0.25 mm 0 W/m2
06:04 7.3 °C 5.9 °C 1000.2 hPa SW 4.3 km/h 16.1 km/h 91% 0.25 mm 0 W/m2
06:09 7.3 °C 5.9 °C 1000.2 hPa SW 5.1 km/h 16.1 km/h 91% 0.25 mm 0 W/m2
06:14 7.3 °C 5.9 °C 1000.2 hPa WSW 7.4 km/h 11.3 km/h 91% 0.25 mm 0 W/m2
06:19 7.3 °C 5.8 °C 1000.2 hPa WSW 5.8 km/h 14.5 km/h 90.4% 0.25 mm 0 W/m2
06:24 7.3 °C 5.8 °C 1000.2 hPa WSW 5.6 km/h 9.7 km/h 90% 0.25 mm 0 W/m2
06:29 7.3 °C 5.8 °C 1000.2 hPa SSW 3.4 km/h 9.7 km/h 90% 0.25 mm 0 W/m2
06:34 7.3 °C 5.8 °C 1000.2 hPa WSW 2.6 km/h 9.7 km/h 90% 0.25 mm 0 W/m2
06:39 7.3 °C 5.8 °C 1000.2 hPa SW 1.4 km/h 8 km/h 90% 0.25 mm 0 W/m2
06:44 7.3 °C 5.8 °C 1000.2 hPa SW 0.6 km/h 6.4 km/h 90% 0.25 mm 0 W/m2
06:49 7.3 °C 5.8 °C 1000.2 hPa SW 0.6 km/h 3.2 km/h 90% 0.25 mm 0 W/m2
06:54 7.2 °C 5.7 °C 1000.2 hPa SW 2.1 km/h 6.4 km/h 90% 0.25 mm 0 W/m2
06:59 7.2 °C 5.7 °C 1000.2 hPa SW 3.2 km/h 6.4 km/h 90% 0.25 mm 0 W/m2
07:04 7.2 °C 5.7 °C 1000.2 hPa SW 3.5 km/h 6.4 km/h 90% 0 mm 0 W/m2
07:09 7.3 °C 5.8 °C 1000.6 hPa WSW 5.6 km/h 9.7 km/h 90% 0 mm 0 W/m2
07:14 7.3 °C 5.8 °C 1000.6 hPa SW 0.3 km/h 4.8 km/h 90.6% 0 mm 0 W/m2
07:19 7.3 °C 5.9 °C 1000.6 hPa SW 2.4 km/h 6.4 km/h 91% 0 mm 0 W/m2
07:24 7.3 °C 5.8 °C 1000.6 hPa WSW 2.3 km/h 4.8 km/h 90.6% 0 mm 0 W/m2
07:29 7.2 °C 5.7 °C 1000.9 hPa WNW 2.3 km/h 4.8 km/h 90% 0 mm 0 W/m2
07:34 7.1 °C 5.7 °C 1000.9 hPa West 1.8 km/h 6.4 km/h 90.8% 0 mm 0 W/m2
07:39 7.1 °C 5.7 °C 1000.9 hPa West 2.6 km/h 6.4 km/h 91% 0 mm 0 W/m2
07:44 7.1 °C 5.7 °C 1001.2 hPa West 3.2 km/h 4.8 km/h 91% 0 mm 0 W/m2
07:48 7.1 °C 5.7 °C 1001.2 hPa West 2.4 km/h 4.8 km/h 91% 0 mm 0 W/m2
07:54 7.1 °C 5.7 °C 1001.2 hPa West 2.1 km/h 6.4 km/h 91% 0 mm 0 W/m2
07:59 7.1 °C 5.7 °C 1001.6 hPa SSW 2.6 km/h 9.7 km/h 91% 0 mm 0 W/m2
08:04 7.1 °C 5.7 °C 1001.9 hPa WSW 2.1 km/h 9.7 km/h 91% 0 mm 0 W/m2
08:09 7.2 °C 5.8 °C 1001.9 hPa WSW 4.8 km/h 8 km/h 91% 0 mm 0 W/m2
08:14 7.2 °C 5.8 °C 1001.9 hPa WSW 3.5 km/h 9.7 km/h 91% 0 mm 0 W/m2
08:19 7.2 °C 5.8 °C 1001.9 hPa WSW 2.6 km/h 6.4 km/h 91% 0 mm 0 W/m2
08:23 7.3 °C 5.9 °C 1001.9 hPa WSW 4.3 km/h 11.3 km/h 91% 0 mm 5 W/m2
08:29 7.3 °C 5.9 °C 1002.3 hPa WSW 6.4 km/h 11.3 km/h 91% 0 mm 9 W/m2
08:34 7.3 °C 5.9 °C 1002.3 hPa WSW 6 km/h 14.5 km/h 91% 0 mm 9 W/m2
08:39 7.4 °C 6 °C 1002.3 hPa WSW 6.6 km/h 16.1 km/h 91% 0 mm 9 W/m2
08:44 7.4 °C 6 °C 1002.3 hPa SW 6.4 km/h 16.1 km/h 90.4% 0 mm 9 W/m2
08:49 7.6 °C 6.1 °C 1002.3 hPa SW 8.9 km/h 19.3 km/h 90% 0 mm 11 W/m2
08:54 7.6 °C 6.1 °C 1002.3 hPa SW 7.6 km/h 16.1 km/h 90% 0 mm 16 W/m2
08:59 7.6 °C 6.1 °C 1002.3 hPa SW 8 km/h 16.1 km/h 90% 0 mm 18 W/m2
09:04 7.7 °C 6.1 °C 1002.3 hPa WSW 8.4 km/h 16.1 km/h 89.4% 0 mm 21 W/m2
09:09 7.7 °C 6 °C 1002.3 hPa SW 6.6 km/h 14.5 km/h 89% 0 mm 21 W/m2
09:14 7.7 °C 6 °C 1002.6 hPa SW 8 km/h 12.9 km/h 89% 0 mm 18 W/m2
09:19 7.7 °C 6 °C 1002.9 hPa SW 8.7 km/h 19.3 km/h 89% 0 mm 19 W/m2
09:24 7.7 °C 6.1 °C 1002.9 hPa SW 10.3 km/h 14.5 km/h 89% 0 mm 21 W/m2
09:29 7.8 °C 6.1 °C 1003.3 hPa WSW 8.4 km/h 17.7 km/h 89% 0 mm 16 W/m2
09:34 7.8 °C 6.1 °C 1003.3 hPa SW 5.6 km/h 12.9 km/h 89% 0 mm 21 W/m2
09:39 7.8 °C 6.1 °C 1003.3 hPa SW 7.6 km/h 14.5 km/h 89% 0 mm 39 W/m2
09:44 7.8 °C 6.1 °C 1003.3 hPa WSW 7.1 km/h 14.5 km/h 89% 0 mm 40 W/m2
09:49 7.8 °C 6.1 °C 1003.6 hPa SW 11.3 km/h 20.9 km/h 89% 0 mm 44 W/m2
09:54 7.8 °C 5.9 °C 1003.9 hPa SW 9.7 km/h 17.7 km/h 88% 0 mm 47 W/m2
09:59 7.9 °C 6 °C 1003.9 hPa SSW 9 km/h 16.1 km/h 88% 0 mm 49 W/m2
10:04 7.9 °C 6 °C 1004.3 hPa WSW 14.2 km/h 30.6 km/h 88% 0 mm 39 W/m2
10:09 7.9 °C 6 °C 1004.3 hPa WSW 10.5 km/h 30.6 km/h 88% 0 mm 62 W/m2
10:14 7.8 °C 5.9 °C 1004.3 hPa West 5.1 km/h 19.3 km/h 88% 0 mm 69 W/m2
10:19 7.8 °C 5.9 °C 1004.6 hPa WSW 6.3 km/h 11.3 km/h 88% 0 mm 67 W/m2
10:24 7.8 °C 6 °C 1004.6 hPa SW 8.4 km/h 14.5 km/h 88.4% 0 mm 74 W/m2
10:29 7.9 °C 6.2 °C 1004.6 hPa SW 7.4 km/h 17.7 km/h 89% 0 mm 72 W/m2
10:34 7.9 °C 6.1 °C 1005 hPa SW 7.9 km/h 16.1 km/h 88.6% 0 mm 54 W/m2
10:39 7.9 °C 6.1 °C 1005 hPa WSW 9.2 km/h 19.3 km/h 88% 0 mm 35 W/m2
10:44 7.9 °C 6 °C 1005.3 hPa WSW 8.4 km/h 22.5 km/h 88% 0 mm 51 W/m2
10:49 7.8 °C 5.9 °C 1005.3 hPa WSW 11.6 km/h 17.7 km/h 87.6% 0 mm 91 W/m2
10:54 7.8 °C 5.8 °C 1005.3 hPa WSW 7.2 km/h 19.3 km/h 87% 0 mm 192 W/m2
10:59 8.1 °C 6.1 °C 1005.6 hPa West 10.8 km/h 19.3 km/h 87% 0 mm 193 W/m2
11:04 8.3 °C 6.3 °C 1005.6 hPa WSW 13.2 km/h 19.3 km/h 87% 0 mm 209 W/m2
11:09 8.4 °C 6.4 °C 1005.6 hPa WSW 6.4 km/h 17.7 km/h 87% 0 mm 128 W/m2
11:14 8.3 °C 6.3 °C 1005.6 hPa West 12.2 km/h 20.9 km/h 87% 0 mm 86 W/m2
11:19 8.1 °C 6.1 °C 1006 hPa West 19.6 km/h 33.8 km/h 87% 0.25 mm 58 W/m2
11:24 7.3 °C 5.2 °C 1006.3 hPa West 23.5 km/h 35.4 km/h 86% 0.25 mm 42 W/m2
11:29 6.9 °C 4.7 °C 1006.3 hPa WSW 10.3 km/h 32.2 km/h 86% 0.51 mm 26 W/m2
11:34 6.7 °C 4.6 °C 1006.3 hPa West 9 km/h 19.3 km/h 86.4% 0.51 mm 195 W/m2
11:39 6.7 °C 4.7 °C 1006 hPa West 8.4 km/h 20.9 km/h 87% 0.51 mm 221 W/m2
11:44 7 °C 5 °C 1006 hPa WSW 7.1 km/h 16.1 km/h 87% 0.51 mm 200 W/m2
11:49 7.3 °C 5.3 °C 1006.3 hPa WSW 4 km/h 9.7 km/h 87% 0.51 mm 204 W/m2
11:54 7.4 °C 5.4 °C 1006.3 hPa WSW 6 km/h 11.3 km/h 87% 0.51 mm 207 W/m2
11:59 7.6 °C 5.5 °C 1006.3 hPa WSW 7.4 km/h 17.7 km/h 86.6% 0.51 mm 209 W/m2
12:04 7.8 °C 5.6 °C 1006.3 hPa SW 6 km/h 17.7 km/h 86% 0.51 mm 209 W/m2
12:09 8.1 °C 5.8 °C 1006.3 hPa WSW 8.9 km/h 19.3 km/h 85.6% 0.51 mm 213 W/m2
12:14 8.2 °C 5.8 °C 1006.3 hPa SW 9 km/h 16.1 km/h 84.8% 0.51 mm 214 W/m2
12:18 8.3 °C 5.8 °C 1006.7 hPa West 6.3 km/h 17.7 km/h 84% 0.51 mm 218 W/m2
12:24 8.6 °C 6.1 °C 1006.7 hPa WSW 6 km/h 16.1 km/h 84.6% 0.25 mm 218 W/m2
12:29 8.7 °C 6 °C 1006.7 hPa West 11.6 km/h 20.9 km/h 83.2% 0.25 mm 218 W/m2
12:34 8.9 °C 6.2 °C 1006.7 hPa WSW 8 km/h 17.7 km/h 83% 0 mm 216 W/m2
12:39 9 °C 6.1 °C 1006.7 hPa West 14.2 km/h 24.1 km/h 81.8% 0.25 mm 218 W/m2
12:44 9.2 °C 5.9 °C 1007 hPa WSW 15.4 km/h 25.7 km/h 80.2% 0.25 mm 218 W/m2
12:49 9.2 °C 5.7 °C 1007 hPa WSW 12.7 km/h 24.1 km/h 79.2% 0.25 mm 216 W/m2
12:54 9.2 °C 5.7 °C 1007.3 hPa WSW 15.4 km/h 29 km/h 78.2% 0.25 mm 213 W/m2
12:59 9.2 °C 5.7 °C 1007.3 hPa WSW 18.2 km/h 25.7 km/h 78% 0.25 mm 213 W/m2
13:04 9.3 °C 5.7 °C 1007.3 hPa WSW 12.6 km/h 24.1 km/h 78% 0.25 mm 223 W/m2
13:09 9.5 °C 5.9 °C 1007.3 hPa WSW 11.3 km/h 20.9 km/h 78% 0.25 mm 239 W/m2
13:14 9.6 °C 5.9 °C 1007.3 hPa WSW 12.6 km/h 22.5 km/h 77.6% 0.25 mm 285 W/m2
13:19 9.6 °C 6 °C 1007.7 hPa West 13.8 km/h 22.5 km/h 78% 0.25 mm 250 W/m2
13:24 9.6 °C 5.9 °C 1007.7 hPa WSW 10.3 km/h 22.5 km/h 77.8% 0.25 mm 176 W/m2
13:29 9.6 °C 5.8 °C 1007.7 hPa West 14.5 km/h 27.4 km/h 77.4% 0.25 mm 244 W/m2
13:34 9.5 °C 5.7 °C 1007.7 hPa West 12.2 km/h 20.9 km/h 77% 0.25 mm 204 W/m2
13:39 9.5 °C 5.6 °C 1007.7 hPa West 16.9 km/h 20.9 km/h 76.5% 0 mm 206 W/m2
13:44 9.6 °C 5.5 °C 1008 hPa West 13.5 km/h 25.7 km/h 75.8% 0 mm 192 W/m2
13:49 9.4 °C 5.3 °C 1008 hPa West 12.6 km/h 22.5 km/h 75.2% 0 mm 111 W/m2
13:54 9.3 °C 5.3 °C 1008 hPa West 11.6 km/h 22.5 km/h 76% 0 mm 120 W/m2
13:59 9.2 °C 5.2 °C 1008 hPa West 11.3 km/h 22.5 km/h 76% 0 mm 121 W/m2
14:03 9.2 °C 5.3 °C 1008.4 hPa West 7.6 km/h 22.5 km/h 76.3% 0 mm 297 W/m2
14:09 9.4 °C 5.6 °C 1008.4 hPa WNW 14.5 km/h 24.1 km/h 76.8% 0 mm 199 W/m2
14:14 9.4 °C 5.4 °C 1008.4 hPa WSW 15.1 km/h 24.1 km/h 76.2% 0 mm 156 W/m2
14:19 9.4 °C 5.3 °C 1008.4 hPa WSW 19 km/h 35.4 km/h 75.2% 0 mm 153 W/m2
14:24 9.4 °C 5.1 °C 1008.7 hPa West 16.1 km/h 32.2 km/h 74.2% 0 mm 146 W/m2
14:29 9.3 °C 5.1 °C 1008.7 hPa West 15 km/h 30.6 km/h 74.8% 0 mm 137 W/m2
14:34 9.4 °C 5.2 °C 1009 hPa West 11.9 km/h 29 km/h 75% 0 mm 130 W/m2
14:39 9.4 °C 5.2 °C 1009 hPa West 14.5 km/h 24.1 km/h 75% 0 mm 121 W/m2
14:44 9.4 °C 5.1 °C 1009 hPa WSW 11.3 km/h 25.7 km/h 74.4% 0 mm 113 W/m2
14:49 9.4 °C 5.2 °C 1009 hPa WSW 15 km/h 27.4 km/h 75% 0 mm 105 W/m2
14:54 9.4 °C 5 °C 1009 hPa WSW 11.9 km/h 27.4 km/h 74% 0 mm 102 W/m2
14:59 9.4 °C 5.1 °C 1009.4 hPa WSW 11.6 km/h 20.9 km/h 74.2% 0 mm 95 W/m2
15:04 9.3 °C 4.9 °C 1009.4 hPa WSW 13.8 km/h 29 km/h 74% 0 mm 84 W/m2
15:09 9.3 °C 4.8 °C 1009.7 hPa WSW 10 km/h 17.7 km/h 74% 0 mm 47 W/m2
15:14 9.2 °C 4.8 °C 1009.7 hPa WSW 10.6 km/h 20.9 km/h 74% 0 mm 46 W/m2
15:19 9.2 °C 4.8 °C 1009.7 hPa WSW 11.6 km/h 19.3 km/h 74.4% 0 mm 28 W/m2
15:24 9.2 °C 4.8 °C 1010 hPa WSW 9.7 km/h 19.3 km/h 74% 0 mm 49 W/m2
15:29 9.1 °C 4.8 °C 1010.4 hPa West 15.8 km/h 30.6 km/h 74.4% 0 mm 79 W/m2
15:34 9.1 °C 4.8 °C 1010.4 hPa West 10.6 km/h 25.7 km/h 75% 0 mm 72 W/m2
15:39 9.1 °C 4.9 °C 1010.4 hPa WSW 11.9 km/h 24.1 km/h 75% 0 mm 49 W/m2
15:44 9.1 °C 4.7 °C 1010.7 hPa WSW 14.8 km/h 22.5 km/h 74% 0 mm 30 W/m2
15:49 8.9 °C 4.5 °C 1010.7 hPa West 13.4 km/h 20.9 km/h 74% 0 mm 28 W/m2
15:54 8.7 °C 4.4 °C 1010.7 hPa West 8.9 km/h 22.5 km/h 74.2% 0 mm 32 W/m2
15:59 8.6 °C 4.3 °C 1010.7 hPa West 8.9 km/h 17.7 km/h 75% 0 mm 21 W/m2
16:04 8.4 °C 4.3 °C 1011.1 hPa West 8.5 km/h 14.5 km/h 75.6% 0 mm 19 W/m2
16:09 8.3 °C 4.3 °C 1011.1 hPa West 4.3 km/h 16.1 km/h 76% 0 mm 16 W/m2
16:14 8.2 °C 4.4 °C 1011.1 hPa WSW 5.6 km/h 11.3 km/h 77% 0 mm 12 W/m2
16:19 8.1 °C 4.3 °C 1011.1 hPa WSW 4.5 km/h 8 km/h 77% 0 mm 11 W/m2
16:24 8 °C 4.3 °C 1011.4 hPa WSW 6.3 km/h 9.7 km/h 77.8% 0 mm 7 W/m2
16:29 7.8 °C 4.3 °C 1011.4 hPa WSW 4.7 km/h 9.7 km/h 78% 0 mm 5 W/m2
16:34 7.8 °C 4.2 °C 1011.7 hPa WSW 6 km/h 16.1 km/h 78% 0 mm 0 W/m2
16:39 7.9 °C 4.3 °C 1011.7 hPa WSW 6.6 km/h 16.1 km/h 78.2% 0 mm 0 W/m2
16:44 7.9 °C 4.3 °C 1011.7 hPa West 6.3 km/h 16.1 km/h 78.2% 0 mm 0 W/m2
16:49 8 °C 4.6 °C 1011.7 hPa WSW 6 km/h 16.1 km/h 79% 0 mm 0 W/m2
16:54 7.9 °C 4.6 °C 1011.7 hPa WSW 6 km/h 12.9 km/h 79% 0 mm 0 W/m2
16:59 7.9 °C 4.5 °C 1012.1 hPa West 8.4 km/h 12.9 km/h 79% 0 mm 0 W/m2
17:04 7.8 °C 4.4 °C 1012.1 hPa WSW 9 km/h 14.5 km/h 79% 0 mm 0 W/m2
17:09 7.8 °C 4.4 °C 1012.1 hPa WSW 8.4 km/h 14.5 km/h 79% 0 mm 0 W/m2
17:14 7.7 °C 4.3 °C 1012.1 hPa WSW 8.4 km/h 14.5 km/h 79% 0 mm 0 W/m2
17:19 7.7 °C 4.3 °C 1012.4 hPa WSW 8.4 km/h 14.5 km/h 79% 0 mm 0 W/m2
17:24 7.7 °C 4.3 °C 1012.4 hPa WSW 10 km/h 12.9 km/h 79% 0 mm 0 W/m2
17:29 7.7 °C 4.3 °C 1012.4 hPa WSW 10 km/h 16.1 km/h 79% 0 mm 0 W/m2
17:34 7.6 °C 4.2 °C 1012.4 hPa WSW 6.6 km/h 12.9 km/h 79% 0 mm 0 W/m2
17:39 7.5 °C 4.1 °C 1012.8 hPa West 5.8 km/h 12.9 km/h 79% 0 mm 0 W/m2
17:44 7.4 °C 4.1 °C 1012.8 hPa WSW 8.5 km/h 14.5 km/h 79% 0 mm 0 W/m2
17:49 7.5 °C 4.1 °C 1012.8 hPa SW 6.4 km/h 12.9 km/h 79% 0 mm 0 W/m2
17:54 7.5 °C 4.1 °C 1012.8 hPa WSW 5.8 km/h 12.9 km/h 79% 0 mm 0 W/m2
17:59 7.6 °C 4.1 °C 1013.1 hPa SW 9.3 km/h 16.1 km/h 78.8% 0 mm 0 W/m2
18:04 7.6 °C 4 °C 1013.1 hPa WSW 7.2 km/h 11.3 km/h 78% 0 mm 0 W/m2
18:09 7.6 °C 4 °C 1013.1 hPa WSW 6.4 km/h 14.5 km/h 78% 0 mm 0 W/m2
18:14 7.6 °C 4 °C 1013.4 hPa WSW 7.9 km/h 14.5 km/h 78% 0 mm 0 W/m2
18:19 7.6 °C 3.8 °C 1013.4 hPa SW 6.8 km/h 12.9 km/h 77% 0 mm 0 W/m2
18:24 7.6 °C 3.8 °C 1013.4 hPa WSW 7.4 km/h 14.5 km/h 77% 0 mm 0 W/m2
18:29 7.5 °C 3.8 °C 1013.4 hPa WSW 6.6 km/h 12.9 km/h 77.8% 0 mm 0 W/m2
18:34 7.5 °C 3.9 °C 1013.4 hPa WSW 5 km/h 11.3 km/h 78% 0 mm 0 W/m2
18:39 7.5 °C 3.8 °C 1013.8 hPa WSW 7.4 km/h 11.3 km/h 77.6% 0 mm 0 W/m2
18:44 7.5 °C 3.7 °C 1013.8 hPa WSW 6.3 km/h 11.3 km/h 77% 0 mm 0 W/m2
18:49 7.4 °C 3.6 °C 1014.1 hPa WSW 3.7 km/h 11.3 km/h 77% 0 mm 0 W/m2
18:54 7.3 °C 3.7 °C 1014.1 hPa SW 3.2 km/h 11.3 km/h 78% 0 mm 0 W/m2
18:59 7.4 °C 3.8 °C 1014.1 hPa SW 4.8 km/h 12.9 km/h 78% 0 mm 0 W/m2
19:04 7.4 °C 3.8 °C 1014.1 hPa SW 4.7 km/h 9.7 km/h 78% 0 mm 0 W/m2
19:09 7.4 °C 3.8 °C 1014.4 hPa SSW 4.3 km/h 11.3 km/h 78% 0 mm 0 W/m2
19:14 7.3 °C 3.7 °C 1014.4 hPa SW 4.5 km/h 9.7 km/h 78% 0 mm 0 W/m2
19:19 7.3 °C 3.7 °C 1014.4 hPa SW 5.1 km/h 12.9 km/h 78% 0 mm 0 W/m2
19:24 7.3 °C 3.7 °C 1014.4 hPa SSW 5.8 km/h 12.9 km/h 78% 0 mm 0 W/m2
19:29 7.3 °C 3.7 °C 1014.4 hPa SSW 6 km/h 9.7 km/h 78% 0 mm 0 W/m2
19:34 7.4 °C 3.8 °C 1014.4 hPa SW 4 km/h 11.3 km/h 78% 0 mm 0 W/m2
19:39 7.4 °C 3.8 °C 1014.4 hPa SSW 6 km/h 12.9 km/h 78% 0 mm 0 W/m2
19:43 7.4 °C 3.8 °C 1014.4 hPa SW 6 km/h 16.1 km/h 78.3% 0 mm 0 W/m2
19:49 7.4 °C 4 °C 1014.4 hPa SW 5.8 km/h 12.9 km/h 79% 0 mm 0 W/m2
19:54 7.5 °C 4.1 °C 1014.8 hPa SW 8.7 km/h 12.9 km/h 79% 0 mm 0 W/m2
19:59 7.5 °C 4.1 °C 1014.8 hPa SW 6.6 km/h 12.9 km/h 79% 0 mm 0 W/m2
20:04 7.4 °C 4 °C 1014.8 hPa SW 4 km/h 11.3 km/h 79% 0 mm 0 W/m2
20:09 7.3 °C 3.9 °C 1014.8 hPa SW 1.9 km/h 8 km/h 79% 0 mm 0 W/m2
20:14 7.3 °C 4.1 °C 1014.8 hPa SW 4 km/h 12.9 km/h 79.6% 0 mm 0 W/m2
20:19 7.3 °C 4.1 °C 1015.1 hPa SSW 5.1 km/h 9.7 km/h 80% 0 mm 0 W/m2
20:24 7.3 °C 4.1 °C 1015.1 hPa SSW 4 km/h 9.7 km/h 80% 0 mm 0 W/m2
20:29 7.3 °C 4.1 °C 1015.1 hPa SSW 4 km/h 9.7 km/h 80% 0 mm 0 W/m2
20:34 7.3 °C 4.2 °C 1015.1 hPa SSW 3.4 km/h 11.3 km/h 80.8% 0 mm 0 W/m2
20:39 7.3 °C 4.3 °C 1015.1 hPa SSW 4.3 km/h 14.5 km/h 81% 0 mm 0 W/m2
20:44 7.3 °C 4.3 °C 1015.1 hPa SSW 5.8 km/h 11.3 km/h 81% 0 mm 0 W/m2
20:49 7.3 °C 4.3 °C 1015.5 hPa SSW 4.7 km/h 9.7 km/h 81% 0 mm 0 W/m2
20:54 7.2 °C 4.3 °C 1015.5 hPa SSW 6.4 km/h 9.7 km/h 81.6% 0 mm 0 W/m2
20:59 7.3 °C 4.4 °C 1015.5 hPa SSW 7.7 km/h 11.3 km/h 82% 0 mm 0 W/m2
21:04 7.3 °C 4.4 °C 1015.5 hPa SSW 5.1 km/h 11.3 km/h 82% 0 mm 0 W/m2
21:09 7.3 °C 4.4 °C 1015.5 hPa SSW 5.5 km/h 14.5 km/h 82% 0 mm 0 W/m2
21:14 7.3 °C 4.4 °C 1015.5 hPa SSW 6 km/h 12.9 km/h 82% 0 mm 0 W/m2
21:19 7.3 °C 4.4 °C 1015.5 hPa SSW 4.5 km/h 8 km/h 82% 0 mm 0 W/m2
21:24 7.2 °C 4.4 °C 1015.5 hPa SSW 5.3 km/h 11.3 km/h 82.6% 0 mm 0 W/m2
21:29 7.2 °C 4.5 °C 1015.8 hPa SW 6 km/h 11.3 km/h 83% 0 mm 0 W/m2
21:34 7.2 °C 4.5 °C 1015.5 hPa SSW 6 km/h 11.3 km/h 83% 0 mm 0 W/m2
21:39 7.2 °C 4.5 °C 1015.5 hPa SSW 3.4 km/h 9.7 km/h 83% 0 mm 0 W/m2
21:44 7.2 °C 4.5 °C 1015.5 hPa SSW 5.1 km/h 12.9 km/h 83% 0 mm 0 W/m2
21:49 7.2 °C 4.5 °C 1015.8 hPa South 5.3 km/h 9.7 km/h 83% 0 mm 0 W/m2
21:54 7.2 °C 4.4 °C 1015.8 hPa SSW 2.4 km/h 8 km/h 83% 0 mm 0 W/m2
21:59 7.1 °C 4.4 °C 1015.8 hPa SSW 2.6 km/h 8 km/h 83% 0 mm 0 W/m2
22:04 7.2 °C 4.5 °C 1015.8 hPa Calm   8 km/h 83% 0 mm 0 W/m2
22:09 7.2 °C 4.6 °C 1015.8 hPa West 0.8 km/h 8 km/h 83% 0 mm 0 W/m2
22:14 7.3 °C 4.7 °C 1016.1 hPa WNW 0.8 km/h 4.8 km/h 83.4% 0 mm 0 W/m2
22:19 7.3 °C 4.6 °C 1016.1 hPa NNW 2.7 km/h 6.4 km/h 83% 0 mm 0 W/m2
22:24 7.2 °C 4.6 °C 1016.1 hPa WNW 3.9 km/h 8 km/h 83.4% 0 mm 0 W/m2
22:29 7.3 °C 4.8 °C 1016.1 hPa SW 1.3 km/h 6.4 km/h 84% 0 mm 0 W/m2
22:34 7.3 °C 4.8 °C 1016.1 hPa WNW 1.1 km/h 4.8 km/h 84% 0 mm 0 W/m2
22:39 7.3 °C 4.8 °C 1016.1 hPa WSW 3.2 km/h 6.4 km/h 84% 0 mm 0 W/m2
22:44 7.6 °C 5.1 °C 1016.1 hPa SSW 2.9 km/h 6.4 km/h 84% 0 mm 0 W/m2
22:49 7.7 °C 5.2 °C 1016.1 hPa South 2.3 km/h 6.4 km/h 84% 0 mm 0 W/m2
22:54 7.5 °C 5 °C 1016.1 hPa West 1.4 km/h 4.8 km/h 84% 0 mm 0 W/m2
22:59 7.3 °C 4.8 °C 1016.1 hPa WSW 2.3 km/h 6.4 km/h 84% 0 mm 0 W/m2
23:04 7.4 °C 4.9 °C 1016.1 hPa SSW 4.3 km/h 14.5 km/h 84% 0 mm 0 W/m2
23:09 7.6 °C 5.2 °C 1016.1 hPa SSW 1.4 km/h 14.5 km/h 85% 0 mm 0 W/m2
23:14 7.7 °C 5.3 °C 1016.1 hPa SSW 4.8 km/h 8 km/h 85% 0 mm 0 W/m2
23:19 7.6 °C 5.2 °C 1016.1 hPa SSW 2.3 km/h 9.7 km/h 85% 0 mm 0 W/m2
23:24 7.6 °C 5.2 °C 1016.5 hPa SW 2.1 km/h 8 km/h 85% 0 mm 0 W/m2
23:29 7.6 °C 5.2 °C 1016.5 hPa SW 2.4 km/h 6.4 km/h 85% 0 mm 0 W/m2
23:34 7.6 °C 5.2 °C 1016.5 hPa SSW 2.7 km/h 8 km/h 85% 0 mm 0 W/m2
23:39 7.6 °C 5.2 °C 1016.5 hPa SSW 2.4 km/h 4.8 km/h 85% 0 mm 0 W/m2
23:44 7.6 °C 5.2 °C 1016.5 hPa SSW 1.3 km/h 4.8 km/h 85% 0 mm 0 W/m2
23:49 7.6 °C 5.2 °C 1016.5 hPa SSW 1.1 km/h 6.4 km/h 85% 0 mm 0 W/m2
23:54 7.6 °C 5.2 °C 1016.5 hPa SSW 1.3 km/h 4.8 km/h 85% 0 mm 0 W/m2
23:59 7.6 °C 5.3 °C 1016.5 hPa South 2.7 km/h 6.4 km/h 85.4% 0 mm 0 W/m2
Bath Spa Weather
Compliments of Weather Underground - 2 mb